El Centro Naf Airport
KNJK : rendu visible

Aérodrome :











RETROUVEZ-NOUS SUR...

 
LOGIN :

S'inscrire | Disclaimer

   EN    FR    IT 

 









Légende :    VFR   VFR Marginal   IFR   IFR Intensif   IFR Très Intensif
Visi : 
Plafond : 
>= 8 km
>= 3000ft
5 à 8 km
1000 à 3000 ft
1500m à 5 km
500 à 1000 ft
800 à 1500m
200 à 500 ft
< 800m
< 200 ft
Symboles :   Orages  Brouillard  Fortes neiges  Fortes précipitations  Vent > 20 kt






- Altitude de l'aérodrome : -42 ft


KNJK - El Centro Naf

DERNIER METAR :
  • 261756Z VRB04KT 10SM CLR 38/M03 A2980 RMK AO2 SLP107 T03781033 10378 20217 50001 $

METARs EXPIRÉS :
  • 261656Z VRB05KT 10SM CLR 36/M03 A2980 RMK AO2 SLP108 T03561033 $
  • 261556Z 31005KT 10SM CLR 33/00 A2981 RMK AO2 SLP108 T03280000 $

TAF COR TAF KNJK
Valide du 26 à 07h jusqu'au 27 à 07h UTC


2607/2707 26006KT 9999 SKC QNH2970INS
FM261400 VRB06KT 9999 FEW250 QNH2974INS
FM270400 20006KT 9999 SKC QNH2968INS LAST NO AMDS AFT 2613 NEXT 2707 T16/2614Z T43/2623Z COR 1315 FS30130
FIR KZLA / Amérique du Nord



MET'MAP, la Météo Aéronautique d'un coup d'oeil ! - Copyright ORBIFLY Décembre 2007 - Disclaimer

ORBIFLY MET'MAP TEAM :

Programmation & Développement : Alexandra Zaïnal
Sur une idée originale de : Baudouin d'Aumeries
Assistance à la programmation : Marc-Olivier Méhu
Soutien technique & logistique : Manuel Goepfert

Contact : metmap@orbifly.com




SOURCES & CREDITS :

   NOAA       Earth
Advisory